createdAt,value
2018-07-20T00:00:55.882Z,99.99
2018-07-20T00:01:55.866Z,99.99
2018-07-20T00:02:55.867Z,99.99
2018-07-20T00:03:55.582Z,99.99
2018-07-20T00:04:55.577Z,99.99
2018-07-20T00:05:55.834Z,99.99
2018-07-20T00:06:55.816Z,99.99
2018-07-20T00:07:55.801Z,99.99
2018-07-20T00:08:55.796Z,99.99
2018-07-20T00:09:55.516Z,99.99
2018-07-20T00:10:55.772Z,99.99
2018-07-20T00:11:55.760Z,99.99
2018-07-20T00:12:55.747Z,99.99
2018-07-20T00:13:55.736Z,99.99
2018-07-20T00:14:55.728Z,99.99
2018-07-20T00:15:55.452Z,99.99
2018-07-20T00:16:55.443Z,99.99
2018-07-20T00:17:55.430Z,99.99
2018-07-20T00:18:55.683Z,99.99
2018-07-20T00:19:55.669Z,99.99
2018-07-20T00:20:55.663Z,99.99
2018-07-20T00:21:55.647Z,99.99
2018-07-20T00:22:55.644Z,99.99
2018-07-20T00:23:55.635Z,99.99
2018-07-20T00:24:55.618Z,99.99
2018-07-20T00:25:55.611Z,99.99
2018-07-20T00:26:55.335Z,99.99
2018-07-20T00:27:55.582Z,99.99
2018-07-20T00:28:55.309Z,99.99
2018-07-20T00:29:55.300Z,99.99
2018-07-20T00:30:55.552Z,99.99
2018-07-20T00:31:55.543Z,99.99
2018-07-20T00:32:55.525Z,99.99
2018-07-20T00:33:55.517Z,99.99
2018-07-20T00:34:55.514Z,99.99
2018-07-20T00:35:55.495Z,99.99
2018-07-20T00:36:55.482Z,99.99
2018-07-20T00:37:55.209Z,99.99
2018-07-20T00:38:55.194Z,99.99
2018-07-20T00:39:55.189Z,99.99
2018-07-20T00:40:55.171Z,99.99
2018-07-20T00:41:55.428Z,99.99
2018-07-20T00:42:55.417Z,99.99
2018-07-20T00:43:55.143Z,99.99
2018-07-20T00:44:55.400Z,99.99
2018-07-20T00:45:55.381Z,99.99
2018-07-20T00:46:55.370Z,99.99
2018-07-20T00:47:55.360Z,99.99
2018-07-20T00:48:55.083Z,99.99
2018-07-20T00:49:55.343Z,99.99
2018-07-20T00:50:55.321Z,99.99
2018-07-20T00:51:55.314Z,99.99
2018-07-20T00:52:55.355Z,99.99
2018-07-20T00:53:55.294Z,99.99
2018-07-20T00:54:55.021Z,99.99
2018-07-20T00:55:55.283Z,99.99
2018-07-20T00:56:55.000Z,99.99
2018-07-20T00:57:55.254Z,99.91
2018-07-20T00:58:55.241Z,99.99
2018-07-20T00:59:54.967Z,99.99
2018-07-20T01:00:54.947Z,99.99
2018-07-20T01:01:54.949Z,99.99
2018-07-20T01:02:55.189Z,99.99
2018-07-20T01:03:54.912Z,98.96
2018-07-20T01:04:55.167Z,99.99
2018-07-20T01:05:55.160Z,99.99
2018-07-20T01:06:55.142Z,99.99
2018-07-20T01:07:55.129Z,99.99
2018-07-20T01:08:54.852Z,99.99
2018-07-20T01:09:55.111Z,99.99
2018-07-20T01:10:55.099Z,99.99
2018-07-20T01:11:55.090Z,99.99
2018-07-20T01:12:55.074Z,99.99
2018-07-20T01:13:55.063Z,99.99
2018-07-20T01:14:54.786Z,99.99
2018-07-20T01:15:55.042Z,99.99
2018-07-20T01:16:54.771Z,99.99
2018-07-20T01:17:54.750Z,99.99
2018-07-20T01:18:54.747Z,99.99
2018-07-20T01:19:54.996Z,99.99
2018-07-20T01:20:54.722Z,99.99
2018-07-20T01:21:54.977Z,99.99
2018-07-20T01:22:54.692Z,99.99
2018-07-20T01:23:54.949Z,99.99
2018-07-20T01:24:54.935Z,99.99
2018-07-20T01:25:54.925Z,99.99
2018-07-20T01:26:54.646Z,99.99
2018-07-20T01:27:54.637Z,99.99
2018-07-20T01:28:54.887Z,99.99
2018-07-20T01:29:54.873Z,99.99
2018-07-20T01:30:54.600Z,99.99
2018-07-20T01:31:54.860Z,99.99
2018-07-20T01:32:54.579Z,99.99
2018-07-20T01:33:54.826Z,99.99
2018-07-20T01:34:54.831Z,99.99
2018-07-20T01:35:54.547Z,99.99
2018-07-20T01:36:54.793Z,99.99
2018-07-20T01:37:54.783Z,99.99
2018-07-20T01:38:54.511Z,99.99
2018-07-20T01:39:54.756Z,99.99
2018-07-20T01:40:54.749Z,99.99
2018-07-20T01:41:54.738Z,99.99
2018-07-20T01:42:54.730Z,99.99
2018-07-20T01:43:54.720Z,99.99
2018-07-20T01:44:54.712Z,99.99
2018-07-20T01:45:54.692Z,99.99
2018-07-20T01:46:54.683Z,99.99
2018-07-20T01:47:54.403Z,99.99
2018-07-20T01:48:54.394Z,99.99
2018-07-20T01:49:54.642Z,99.99
2018-07-20T01:50:54.638Z,99.99
2018-07-20T01:51:54.364Z,99.99
2018-07-20T01:52:54.605Z,99.99
2018-07-20T01:53:54.607Z,99.99
2018-07-20T01:54:54.329Z,99.99
2018-07-20T01:55:54.309Z,99.99
2018-07-20T01:56:54.562Z,99.99
2018-07-20T01:57:54.549Z,99.96
2018-07-20T01:58:54.541Z,99.99
2018-07-20T01:59:54.259Z,99.48
2018-07-20T02:00:54.516Z,99.1
2018-07-20T02:01:54.511Z,99.39
2018-07-20T02:02:54.498Z,98.81
2018-07-20T02:03:54.483Z,98.72
2018-07-20T02:04:54.468Z,98.91
2018-07-20T02:05:54.195Z,98.52
2018-07-20T02:06:54.449Z,97.95
2018-07-20T02:07:54.170Z,97.47
2018-07-20T02:08:54.419Z,97.47
2018-07-20T02:09:54.408Z,97.04
2018-07-20T02:10:54.397Z,97.52
2018-07-20T02:11:54.119Z,97.71
2018-07-20T02:12:54.371Z,97.42
2018-07-20T02:13:54.092Z,97.56
2018-07-20T02:14:54.088Z,96.99
2018-07-20T02:15:54.335Z,96.8
2018-07-20T02:16:54.323Z,96.89
2018-07-20T02:17:54.312Z,97.47
2018-07-20T02:18:54.298Z,96.8
2018-07-20T02:19:54.032Z,97.18
2018-07-20T02:20:54.282Z,97.18
2018-07-20T02:21:54.265Z,97.56
2018-07-20T02:22:54.251Z,97.38
2018-07-20T02:23:53.978Z,97.66
2018-07-20T02:24:54.233Z,97.66
2018-07-20T02:25:54.218Z,97.28
2018-07-20T02:26:53.942Z,97.47
2018-07-20T02:27:53.927Z,97.52
2018-07-20T02:28:54.181Z,98.05
2018-07-20T02:29:54.177Z,97.61
2018-07-20T02:30:54.169Z,97.42
2018-07-20T02:31:54.154Z,97.18
2018-07-20T02:32:53.873Z,97.52
2018-07-20T02:33:54.125Z,98.19
2018-07-20T02:34:54.107Z,97.76
2018-07-20T02:35:53.844Z,97.42
2018-07-20T02:36:53.828Z,97.23
2018-07-20T02:37:53.818Z,97.47
2018-07-20T02:38:54.072Z,98.19
2018-07-20T02:39:54.054Z,98.1
2018-07-20T02:40:54.042Z,98.19
2018-07-20T02:41:54.042Z,97.56
2018-07-20T02:42:53.749Z,97.38
2018-07-20T02:43:54.004Z,97.66
2018-07-20T02:44:53.997Z,97.66
2018-07-20T02:45:53.985Z,97.95
2018-07-20T02:46:53.702Z,97.66
2018-07-20T02:47:53.950Z,97.52
2018-07-20T02:48:53.944Z,98.1
2018-07-20T02:49:53.938Z,97.52
2018-07-20T02:50:53.916Z,97.56
2018-07-20T02:51:53.904Z,97.8
2018-07-20T02:52:53.897Z,97.28
2018-07-20T02:53:53.880Z,97.28
2018-07-20T02:54:53.612Z,97.14
2018-07-20T02:55:53.862Z,97.14
2018-07-20T02:56:53.846Z,97.56
2018-07-20T02:57:53.842Z,97.47
2018-07-20T02:58:53.564Z,97.9
2018-07-20T02:59:53.554Z,97.52
2018-07-20T03:00:53.795Z,97.52
2018-07-20T03:01:53.523Z,97.52
2018-07-20T03:02:53.516Z,96.66
2018-07-20T03:03:53.777Z,95.89
2018-07-20T03:04:53.754Z,96.27
2018-07-20T03:05:53.472Z,96.56
2018-07-20T03:06:53.458Z,96.27
2018-07-20T03:07:53.447Z,96.37
2018-07-20T03:08:53.857Z,95.22
2018-07-20T03:09:53.428Z,95.51
2018-07-20T03:10:53.678Z,96.18
2018-07-20T03:11:53.662Z,96.37
2018-07-20T03:12:53.654Z,96.27
2018-07-20T03:13:53.375Z,96.56
2018-07-20T03:14:53.630Z,96.18
2018-07-20T03:15:53.614Z,96.27
2018-07-20T03:16:53.609Z,96.18
2018-07-20T03:17:53.591Z,96.47
2018-07-20T03:18:53.582Z,96.47
2018-07-20T03:19:53.302Z,95.6
2018-07-20T03:20:53.606Z,95.6
2018-07-20T03:21:53.540Z,95.31
2018-07-20T03:22:53.267Z,95.12
2018-07-20T03:23:53.527Z,95.31
2018-07-20T03:24:53.514Z,95.41
2018-07-20T03:25:53.233Z,94.84
2018-07-20T03:26:53.492Z,95.03
2018-07-20T03:27:53.213Z,95.03
2018-07-20T03:28:53.194Z,95.03
2018-07-20T03:29:53.446Z,94.6
2018-07-20T03:30:53.170Z,94.55
2018-07-20T03:31:53.430Z,94.5
2018-07-20T03:32:53.719Z,94.12
2018-07-20T03:33:53.416Z,94.79
2018-07-20T03:34:53.383Z,94.12
2018-07-20T03:35:53.108Z,94.31
2018-07-20T03:36:53.097Z,94.31
2018-07-20T03:37:53.345Z,94.31
2018-07-20T03:38:53.069Z,94.21
2018-07-20T03:39:53.367Z,94.12
2018-07-20T03:40:53.315Z,93.54
2018-07-20T03:41:53.301Z,93.45
2018-07-20T03:42:53.299Z,92.78
2018-07-20T03:43:53.005Z,93.35
2018-07-20T03:44:52.999Z,92.97
2018-07-20T03:45:52.978Z,93.07
2018-07-20T03:46:52.970Z,93.26
2018-07-20T03:47:53.218Z,93.07
2018-07-20T03:48:52.955Z,92.87
2018-07-20T03:49:53.203Z,93.07
2018-07-20T03:50:53.182Z,92.87
2018-07-20T03:51:52.906Z,93.07
2018-07-20T03:52:53.157Z,92.68
2018-07-20T03:53:53.150Z,91.92
2018-07-20T03:54:52.870Z,92.01
2018-07-20T03:55:53.118Z,91.82
2018-07-20T03:56:52.844Z,91.72
2018-07-20T03:57:53.097Z,91.25
2018-07-20T03:58:52.820Z,91.25
2018-07-20T03:59:53.074Z,89.52
2018-07-20T04:00:53.066Z,89.43
2018-07-20T04:01:52.782Z,89.81
2018-07-20T04:02:53.037Z,89.9
2018-07-20T04:03:53.025Z,89.62
2018-07-20T04:04:52.748Z,90.58
2018-07-20T04:05:52.730Z,90.39
2018-07-20T04:06:52.721Z,90.58
2018-07-20T04:07:52.706Z,89.62
2018-07-20T04:08:52.958Z,89.9
2018-07-20T04:09:52.949Z,89.72
2018-07-20T04:10:52.670Z,90.19
2018-07-20T04:11:52.928Z,90.09
2018-07-20T04:12:52.911Z,90
2018-07-20T04:13:52.632Z,89.81
2018-07-20T04:14:52.881Z,90.29
2018-07-20T04:15:52.878Z,90.09
2018-07-20T04:16:52.594Z,89.52
2018-07-20T04:17:52.850Z,90
2018-07-20T04:18:52.835Z,89.43
2018-07-20T04:19:52.824Z,89.33
2018-07-20T04:20:52.809Z,89.76
2018-07-20T04:21:52.537Z,89.57
2018-07-20T04:22:52.528Z,90.14
2018-07-20T04:23:52.779Z,90.14
2018-07-20T04:24:52.768Z,89.66
2018-07-20T04:25:52.753Z,90.81
2018-07-20T04:26:52.736Z,89.76
2018-07-20T04:27:52.727Z,90.05
2018-07-20T04:28:52.764Z,89.95
2018-07-20T04:29:52.440Z,89.76
2018-07-20T04:30:52.423Z,89.57
2018-07-20T04:31:52.674Z,89.95
2018-07-20T04:32:52.664Z,90.72
2018-07-20T04:33:52.647Z,90.91
2018-07-20T04:34:52.374Z,90.53
2018-07-20T04:35:52.621Z,90.62
2018-07-20T04:36:52.615Z,89.95
2018-07-20T04:37:52.597Z,89.28
2018-07-20T04:38:52.584Z,89.47
2018-07-20T04:39:52.578Z,89.57
2018-07-20T04:40:52.569Z,89.76
2018-07-20T04:41:52.553Z,89.76
2018-07-20T04:42:52.537Z,89.66
2018-07-20T04:43:52.583Z,89.76
2018-07-20T04:44:52.250Z,89.57
2018-07-20T04:45:52.497Z,89.76
2018-07-20T04:46:52.491Z,89.57
2018-07-20T04:47:52.482Z,90.33
2018-07-20T04:48:52.467Z,89.86
2018-07-20T04:49:52.512Z,90.23
2018-07-20T04:50:52.179Z,91.49
2018-07-20T04:51:52.426Z,90.72
2018-07-20T04:52:52.421Z,91.1
2018-07-20T04:53:52.141Z,91
2018-07-20T04:54:52.133Z,90.33
2018-07-20T04:55:52.381Z,90.23
2018-07-20T04:56:52.367Z,90
2018-07-20T04:57:52.355Z,90.14
2018-07-20T04:58:52.643Z,91.14
2018-07-20T04:59:52.329Z,91.72
2018-07-20T05:00:52.314Z,91.86
2018-07-20T05:01:52.310Z,92.2
2018-07-20T05:02:52.033Z,92.87
2018-07-20T05:03:52.505Z,92.77
2018-07-20T05:04:52.266Z,92.49
2018-07-20T05:05:52.378Z,92.39
2018-07-20T05:06:52.249Z,92.39
2018-07-20T05:07:52.287Z,92.49
2018-07-20T05:08:52.231Z,93.06
2018-07-20T05:09:52.211Z,93.35
2018-07-20T05:10:52.204Z,93.73
2018-07-20T05:11:52.194Z,93.63
2018-07-20T05:12:52.184Z,93.83
2018-07-20T05:13:52.167Z,93.44
2018-07-20T05:14:51.903Z,94.31
2018-07-20T05:15:52.151Z,93.63
2018-07-20T05:16:52.146Z,94.02
2018-07-20T05:17:52.117Z,94.4
2018-07-20T05:18:52.101Z,94.4
2018-07-20T05:19:51.826Z,94.5
2018-07-20T05:20:52.078Z,94.59
2018-07-20T05:21:51.802Z,94.31
2018-07-20T05:22:52.066Z,94.21
2018-07-20T05:23:52.058Z,94.17
2018-07-20T05:24:51.776Z,94.64
2018-07-20T05:25:52.019Z,94.35
2018-07-20T05:26:52.018Z,94.45
2018-07-20T05:27:51.999Z,94.54
2018-07-20T05:28:51.722Z,94.35
2018-07-20T05:29:51.713Z,94.35
2018-07-20T05:30:51.973Z,94.84
2018-07-20T05:31:51.961Z,95.6
2018-07-20T05:32:51.949Z,95.51
2018-07-20T05:33:51.922Z,95.12
2018-07-20T05:34:51.911Z,94.54
2018-07-20T05:35:51.908Z,95.12
2018-07-20T05:36:51.895Z,94.64
2018-07-20T05:37:51.885Z,94.93
2018-07-20T05:38:51.871Z,95.07
2018-07-20T05:39:51.861Z,94.26
2018-07-20T05:40:51.844Z,94.79
2018-07-20T05:41:51.847Z,94.59
2018-07-20T05:42:51.825Z,96.32
2018-07-20T05:43:51.814Z,96.61
2018-07-20T05:44:51.796Z,96.32
2018-07-20T05:45:51.524Z,96.22
2018-07-20T05:46:51.516Z,96.32
2018-07-20T05:47:51.766Z,96.22
2018-07-20T05:48:51.757Z,96.42
2018-07-20T05:49:51.748Z,97.38
2018-07-20T05:50:51.734Z,96.8
2018-07-20T05:51:51.455Z,96.51
2018-07-20T05:52:51.713Z,97.81
2018-07-20T05:53:51.432Z,98.1
2018-07-20T05:54:51.689Z,98.1
2018-07-20T05:55:51.676Z,98.48
2018-07-20T05:56:51.676Z,98.77
2018-07-20T05:57:51.654Z,98.29
2018-07-20T05:58:51.661Z,97.71
2018-07-20T05:59:51.635Z,97.14
2018-07-20T06:00:51.618Z,97.04
2018-07-20T06:01:51.347Z,96.75
2018-07-20T06:02:51.337Z,97.24
2018-07-20T06:03:51.326Z,96.47
2018-07-20T06:04:51.313Z,96.89
2018-07-20T06:05:51.308Z,97.09
2018-07-20T06:06:51.640Z,97.28
2018-07-20T06:07:51.284Z,97.19
2018-07-20T06:08:51.278Z,96.8
2018-07-20T06:09:51.256Z,96.7
2018-07-20T06:10:51.511Z,96.8
2018-07-20T06:11:51.236Z,97.66
2018-07-20T06:12:51.230Z,98.34
2018-07-20T06:13:51.482Z,97.76
2018-07-20T06:14:51.213Z,98.68
2018-07-20T06:15:51.452Z,98.58
2018-07-20T06:16:51.445Z,98.96
2018-07-20T06:17:51.436Z,98.96
2018-07-20T06:18:51.519Z,98.77
2018-07-20T06:19:51.569Z,98.77
2018-07-20T06:20:51.444Z,99.99
2018-07-20T06:21:51.392Z,99.99
2018-07-20T06:22:51.381Z,99.99
2018-07-20T06:23:51.597Z,99.99
2018-07-20T06:24:51.362Z,99.99
2018-07-20T06:25:51.350Z,99.15
2018-07-20T06:26:51.349Z,98.86
2018-07-20T06:27:51.338Z,98.77
2018-07-20T06:28:51.317Z,99.11
2018-07-20T06:29:51.318Z,99.99
2018-07-20T06:30:51.298Z,99.99
2018-07-20T06:31:51.290Z,99.99
2018-07-20T06:32:51.277Z,99.99
2018-07-20T06:33:51.266Z,99.99
2018-07-20T06:34:50.991Z,99.99
2018-07-20T06:35:50.987Z,99.99
2018-07-20T06:36:51.232Z,99.99
2018-07-20T06:37:50.964Z,99.99
2018-07-20T06:38:51.215Z,99.99
2018-07-20T06:39:50.945Z,99.99
2018-07-20T06:40:51.352Z,99.99
2018-07-20T06:41:50.920Z,99.99
2018-07-20T06:42:50.918Z,99.99
2018-07-20T06:43:51.162Z,99.99
2018-07-20T06:44:51.157Z,99.99
2018-07-20T06:45:50.882Z,99.99
2018-07-20T06:46:51.139Z,99.99
2018-07-20T06:47:51.123Z,99.99
2018-07-20T06:48:50.849Z,99.99
2018-07-20T06:49:51.186Z,99.99
2018-07-20T06:50:50.835Z,99.99
2018-07-20T06:51:51.086Z,99.99
2018-07-20T06:52:51.072Z,99.99
2018-07-20T06:53:51.072Z,99.99
2018-07-20T06:54:50.790Z,99.99
2018-07-20T06:55:51.100Z,99.99
2018-07-20T06:56:50.770Z,99.99
2018-07-20T06:57:51.024Z,99.99
2018-07-20T06:58:51.031Z,99.99
2018-07-20T06:59:50.751Z,99.99
2018-07-20T07:00:50.734Z,99.99
2018-07-20T07:01:50.984Z,99.99
2018-07-20T07:02:50.980Z,99.99
2018-07-20T07:03:50.977Z,99.99
2018-07-20T07:04:50.692Z,99.99
2018-07-20T07:05:50.948Z,99.99
2018-07-20T07:06:50.947Z,99.99
2018-07-20T07:07:50.670Z,99.99
2018-07-20T07:08:50.654Z,99.99
2018-07-20T07:09:50.915Z,99.99
2018-07-20T07:10:50.638Z,99.99
2018-07-20T07:11:50.625Z,99.99
2018-07-20T07:12:50.891Z,99.99
2018-07-20T07:13:50.872Z,99.99
2018-07-20T07:14:50.614Z,99.99
2018-07-20T07:15:50.906Z,99.99
2018-07-20T07:16:50.847Z,99.99
2018-07-20T07:17:50.839Z,99.99
2018-07-20T07:18:50.562Z,99.99
2018-07-20T07:19:50.552Z,99.99
2018-07-20T07:20:50.809Z,99.99
2018-07-20T07:21:50.802Z,99.99
2018-07-20T07:22:50.525Z,99.99
2018-07-20T07:23:50.785Z,99.99
2018-07-20T07:24:50.839Z,99.99
2018-07-20T07:25:50.879Z,99.99
2018-07-20T07:26:50.749Z,99.99
2018-07-20T07:27:50.745Z,99.99
2018-07-20T07:28:50.747Z,99.99
2018-07-20T07:29:50.464Z,99.99
2018-07-20T07:30:50.721Z,99.99
2018-07-20T07:31:50.443Z,99.99
2018-07-20T07:32:50.437Z,99.99
2018-07-20T07:33:50.693Z,91.93
2018-07-20T07:34:50.419Z,89.37
2018-07-20T07:35:50.825Z,95.25
2018-07-20T07:36:50.409Z,99.99
2018-07-20T07:37:50.665Z,85.94
2018-07-20T07:38:50.650Z,78.06
2018-07-20T07:39:50.379Z,73.14
2018-07-20T07:40:50.641Z,70.86
2018-07-20T07:41:50.625Z,68.12
2018-07-20T07:42:50.624Z,66.24
2018-07-20T07:43:50.357Z,64.04
2018-07-20T07:44:50.624Z,64.2
2018-07-20T07:45:50.340Z,62.29
2018-07-20T07:46:50.604Z,59.05
2018-07-20T07:47:50.594Z,56.64
2018-07-20T07:48:50.591Z,57.84
2018-07-20T07:49:50.335Z,57.67
2018-07-20T07:50:50.585Z,57.21
2018-07-20T07:51:50.577Z,54.02
2018-07-20T07:52:50.316Z,55.12
2018-07-20T07:53:50.579Z,52.61
2018-07-20T07:54:50.662Z,53.81
2018-07-20T07:55:50.564Z,52.54
2018-07-20T07:56:50.299Z,50.22
2018-07-20T07:57:50.555Z,50.15
2018-07-20T07:58:50.288Z,49.48
2018-07-20T07:59:50.286Z,50.07
2018-07-20T08:00:50.546Z,49.41
2018-07-20T08:01:50.292Z,49.8
2018-07-20T08:02:50.290Z,47.38
2018-07-20T08:03:50.281Z,46.91
2018-07-20T08:04:50.478Z,46.23
2018-07-20T08:05:50.548Z,46.81
2018-07-20T08:06:50.538Z,47.6
2018-07-20T08:07:50.534Z,47.03
2018-07-20T08:08:50.536Z,46.17
2018-07-20T08:09:50.319Z,45.98
2018-07-20T08:10:50.529Z,45.7
2018-07-20T08:11:50.533Z,45.04
2018-07-20T08:12:50.532Z,43.98
2018-07-20T08:13:50.263Z,43.96
2018-07-20T08:14:50.534Z,44.06
2018-07-20T08:15:50.596Z,45.53
2018-07-20T08:16:50.527Z,44.47
2018-07-20T08:17:50.274Z,43.88
2018-07-20T08:18:50.260Z,43.98
2018-07-20T08:19:50.270Z,43.98
2018-07-20T08:20:50.270Z,44.4
2018-07-20T08:21:50.523Z,43.71
2018-07-20T08:22:50.633Z,43.9
2018-07-20T08:23:50.530Z,43.12
2018-07-20T08:24:50.528Z,41.74
2018-07-20T08:25:50.270Z,41.25
2018-07-20T08:26:50.279Z,41.63
2018-07-20T08:27:50.533Z,40.94
2018-07-20T08:28:50.540Z,42.71
2018-07-20T08:29:50.269Z,42.24
2018-07-20T08:30:50.532Z,42.53
2018-07-20T08:31:50.267Z,42.35
2018-07-20T08:32:50.267Z,42.92
2018-07-20T08:33:50.533Z,42.45
2018-07-20T08:34:50.540Z,41.37
2018-07-20T08:35:50.532Z,42.85
2018-07-20T08:36:50.536Z,41.56
2018-07-20T08:37:50.534Z,42.35
2018-07-20T08:38:50.546Z,41.77
2018-07-20T08:39:50.541Z,42.35
2018-07-20T08:40:50.279Z,41.47
2018-07-20T08:41:50.541Z,42.75
2018-07-20T08:42:50.540Z,43.33
2018-07-20T08:43:50.276Z,43.24
2018-07-20T08:44:50.542Z,42.55
2018-07-20T08:45:50.279Z,43.71
2018-07-20T08:46:50.541Z,44.77
2018-07-20T08:47:50.539Z,44.43
2018-07-20T08:48:50.292Z,44.68
2018-07-20T08:49:50.276Z,46.3
2018-07-20T08:50:50.543Z,46.36
2018-07-20T08:51:50.543Z,46.82
2018-07-20T08:52:50.539Z,48.83
2018-07-20T08:53:50.543Z,48.63
2018-07-20T08:54:50.537Z,49.76
2018-07-20T08:55:50.277Z,48.75
2018-07-20T08:56:50.542Z,50.02
2018-07-20T08:57:50.543Z,51.85
2018-07-20T08:58:50.599Z,51.56
2018-07-20T08:59:50.534Z,51.82
2018-07-20T09:00:50.534Z,51.53
2018-07-20T09:01:50.522Z,52.67
2018-07-20T09:02:50.518Z,53.85
2018-07-20T09:03:50.523Z,54.43
2018-07-20T09:04:50.252Z,55.08
2018-07-20T09:05:50.252Z,54.5
2018-07-20T09:06:50.508Z,54.21
2018-07-20T09:07:50.514Z,54.99
2018-07-20T09:08:50.501Z,55.66
2018-07-20T09:09:50.243Z,55.76
2018-07-20T09:10:50.239Z,55.01
2018-07-20T09:11:50.231Z,54.46
2018-07-20T09:12:50.228Z,52.46
2018-07-20T09:13:50.983Z,52.56
2018-07-20T09:14:50.221Z,52.07
2018-07-20T09:15:50.488Z,52.44
2018-07-20T09:16:50.479Z,52.14
2018-07-20T09:17:50.484Z,52.63
2018-07-20T09:18:50.484Z,53.38
2018-07-20T09:19:50.511Z,52.5
2018-07-20T09:20:50.257Z,54.26
2018-07-20T09:21:50.203Z,53.97
2018-07-20T09:22:50.198Z,53.38
2018-07-20T09:23:50.458Z,52.14
2018-07-20T09:24:50.198Z,51.85
2018-07-20T09:25:50.194Z,51.26
2018-07-20T09:26:50.187Z,52.34
2018-07-20T09:27:50.453Z,51.19
2018-07-20T09:28:50.185Z,50.04
2018-07-20T09:29:50.447Z,51.39
2018-07-20T09:30:50.182Z,52.46
2018-07-20T09:31:50.455Z,52.56
2018-07-20T09:32:50.181Z,52.26
2018-07-20T09:33:50.177Z,52.63
2018-07-20T09:34:50.445Z,51.46
2018-07-20T09:35:50.438Z,51.56
2018-07-20T09:36:50.432Z,52.53
2018-07-20T09:37:50.434Z,53.21
2018-07-20T09:38:50.435Z,53.6
2018-07-20T09:39:50.429Z,53.99
2018-07-20T09:40:50.425Z,54.19
2018-07-20T09:41:50.158Z,54.06
2018-07-20T09:42:50.519Z,54.16
2018-07-20T09:43:50.414Z,53.48
2018-07-20T09:44:50.416Z,54.23
2018-07-20T09:45:50.145Z,55.4
2018-07-20T09:46:50.148Z,55.6
2018-07-20T09:47:50.415Z,54.72
2018-07-20T09:48:50.142Z,55.01
2018-07-20T09:49:50.136Z,54.82
2018-07-20T09:50:50.132Z,54.72
2018-07-20T09:51:50.401Z,54.82
2018-07-20T09:52:50.394Z,54.43
2018-07-20T09:53:50.389Z,53.87
2018-07-20T09:54:50.406Z,53.41
2018-07-20T09:55:50.378Z,54.38
2018-07-20T09:56:50.385Z,53.99
2018-07-20T09:57:50.376Z,54.09
2018-07-20T09:58:50.370Z,52.14
2018-07-20T09:59:50.474Z,52.53
2018-07-20T10:00:50.364Z,51.85
2018-07-20T10:01:50.359Z,52.6
2018-07-20T10:02:50.366Z,53.48
2018-07-20T10:03:50.358Z,53.67
2018-07-20T10:04:50.583Z,53.75
2018-07-20T10:05:50.397Z,54.16
2018-07-20T10:06:50.092Z,53.36
2018-07-20T10:07:50.350Z,54.33
2018-07-20T10:08:50.347Z,54.06
2018-07-20T10:09:50.337Z,54.65
2018-07-20T10:11:50.345Z,54.23
2018-07-20T10:12:50.330Z,53.45
2018-07-20T10:13:50.062Z,54.82
2018-07-20T10:14:50.061Z,54.72
2018-07-20T10:15:50.050Z,54.03
2018-07-20T10:16:50.315Z,54.62
2018-07-20T10:17:50.310Z,55.01
2018-07-20T10:18:50.044Z,53.36
2018-07-20T10:19:50.038Z,53.85
2018-07-20T10:20:50.297Z,54.43
2018-07-20T10:21:50.303Z,55.6
2018-07-20T10:22:50.294Z,55.82
2018-07-20T10:23:50.290Z,55.23
2018-07-20T10:24:50.288Z,55.23
2018-07-20T10:25:50.282Z,54.77
2018-07-20T10:26:50.277Z,53.99
2018-07-20T10:27:50.293Z,53.02
2018-07-20T10:28:50.278Z,53.05
2018-07-20T10:29:50.273Z,51.97
2018-07-20T10:30:50.268Z,53.63
2018-07-20T10:31:50.271Z,51.78
2018-07-20T10:32:50.267Z,50.34
2018-07-20T10:33:50.001Z,51.53
2018-07-20T10:34:50.260Z,51.49
2018-07-20T10:35:50.270Z,50.15
2018-07-20T10:36:49.996Z,48.6
2018-07-20T10:37:50.261Z,46.79
2018-07-20T10:38:50.262Z,46.33
2018-07-20T10:39:49.992Z,46.44
2018-07-20T10:40:50.000Z,44.02
2018-07-20T10:41:50.001Z,43.82
2018-07-20T10:42:50.263Z,43.15
2018-07-20T10:43:50.274Z,44.35
2018-07-20T10:44:50.270Z,42.8
2018-07-20T10:45:50.267Z,43.02
2018-07-20T10:46:50.013Z,43.02
2018-07-20T10:47:50.277Z,41.96
2018-07-20T10:48:50.012Z,43.04
2018-07-20T10:49:50.279Z,42.96
2018-07-20T10:50:50.288Z,42.1
2018-07-20T10:51:50.286Z,41.73
2018-07-20T10:52:50.299Z,39.87
2018-07-20T10:53:50.294Z,40.39
2018-07-20T10:54:50.302Z,41.16
2018-07-20T10:55:50.321Z,40.96
2018-07-20T10:56:50.049Z,41.33
2018-07-20T10:57:50.331Z,41.11
2018-07-20T10:58:50.338Z,43.04
2018-07-20T10:59:50.331Z,42.82
2018-07-20T11:00:50.119Z,43.12
2018-07-20T11:01:50.069Z,42.43
2018-07-20T11:02:50.335Z,43.22
2018-07-20T11:03:50.078Z,42.24
2018-07-20T11:04:50.356Z,41.56
2018-07-20T11:05:50.383Z,41.86
2018-07-20T11:06:50.351Z,41.27
2018-07-20T11:07:50.360Z,41.19
2018-07-20T11:08:50.358Z,42.96
2018-07-20T11:09:50.360Z,41.02
2018-07-20T11:10:50.107Z,40.64
2018-07-20T11:11:50.379Z,41.04
2018-07-20T11:12:50.117Z,43.71
2018-07-20T11:13:50.452Z,39.7
2018-07-20T11:14:50.389Z,39.5
2018-07-20T11:15:50.396Z,38.71
2018-07-20T11:16:50.390Z,40.51
2018-07-20T11:17:50.402Z,41.39
2018-07-20T11:18:50.406Z,39.42
2018-07-20T11:19:50.159Z,39.73
2018-07-20T11:20:50.417Z,39.04
2018-07-20T11:21:50.420Z,39.54
2018-07-20T11:22:50.424Z,38.95
2018-07-20T11:23:50.169Z,38.75
2018-07-20T11:24:50.435Z,38.87
2018-07-20T11:25:50.176Z,38.28
2018-07-20T11:26:50.445Z,39.56
2018-07-20T11:27:50.191Z,38.47
2018-07-20T11:28:50.462Z,38.49
2018-07-20T11:29:50.200Z,37.7
2018-07-20T11:30:50.207Z,37.49
2018-07-20T11:31:50.470Z,38
2018-07-20T11:32:50.217Z,37.11
2018-07-20T11:33:50.225Z,36.82
2018-07-20T11:34:50.561Z,36.93
2018-07-20T11:35:50.506Z,37.52
2018-07-20T11:36:50.241Z,38.21
2018-07-20T11:37:50.251Z,38.02
2018-07-20T11:38:50.518Z,36.16
2018-07-20T11:39:50.525Z,35.88
2018-07-20T11:40:50.530Z,36.24
2018-07-20T11:41:50.291Z,37.41
2018-07-20T11:42:50.545Z,36.32
2018-07-20T11:43:50.554Z,37.41
2018-07-20T11:44:50.560Z,36.73
2018-07-20T11:45:50.571Z,36.44
2018-07-20T11:46:50.307Z,37.7
2018-07-20T11:47:50.577Z,37.3
2018-07-20T11:48:50.587Z,37.39
2018-07-20T11:49:50.588Z,37.11
2018-07-20T11:50:50.331Z,37.43
2018-07-20T11:51:50.347Z,36.44
2018-07-20T11:52:50.619Z,37.24
2018-07-20T11:53:50.611Z,36.37
2018-07-20T11:54:50.619Z,35.3
2018-07-20T11:55:50.655Z,35.8
2018-07-20T11:56:50.633Z,34.83
2018-07-20T11:57:50.641Z,35.52
2018-07-20T11:58:50.648Z,35.5
2018-07-20T11:59:50.662Z,35.8
2018-07-20T12:00:50.664Z,35.22
2018-07-20T12:01:50.427Z,34.64
2018-07-20T12:02:50.684Z,34.74
2018-07-20T12:03:50.682Z,35.61
2018-07-20T12:04:50.891Z,34.84
2018-07-20T12:05:50.695Z,34.71
2018-07-20T12:06:50.784Z,35.49
2018-07-20T12:07:50.446Z,36.55
2018-07-20T12:08:50.484Z,36.44
2018-07-20T12:09:50.725Z,37.43
2018-07-20T12:10:50.729Z,37.7
2018-07-20T12:11:50.734Z,36.52
2018-07-20T12:12:50.742Z,37.13
2018-07-20T12:13:50.750Z,36.22
2018-07-20T12:14:50.489Z,37.19
2018-07-20T12:15:50.778Z,37.19
2018-07-20T12:16:50.516Z,36.42
2018-07-20T12:17:50.804Z,36.34
2018-07-20T12:18:50.819Z,35.66
2018-07-20T12:19:50.829Z,36.54
2018-07-20T12:20:50.829Z,37.11
2018-07-20T12:21:50.546Z,36.54
2018-07-20T12:22:50.819Z,36.14
2018-07-20T12:23:50.837Z,35.55
2018-07-20T12:24:50.835Z,37.03
2018-07-20T12:25:50.584Z,37.23
2018-07-20T12:26:50.854Z,37.15
2018-07-20T12:27:50.856Z,35.76
2018-07-20T12:28:50.604Z,35.37
2018-07-20T12:29:50.861Z,37.72
2018-07-20T12:30:50.868Z,36.34
2018-07-20T12:31:50.610Z,35.64
2018-07-20T12:32:50.631Z,36.5
2018-07-20T12:33:50.623Z,38.18
2018-07-20T12:34:50.903Z,36.8
2018-07-20T12:35:50.885Z,37.39
2018-07-20T12:36:50.914Z,36.42
2018-07-20T12:37:50.933Z,36.24
2018-07-20T12:38:50.656Z,35.37
2018-07-20T12:39:50.925Z,35.78
2018-07-20T12:40:50.917Z,36.55
2018-07-20T12:41:50.671Z,36.57
2018-07-20T12:42:50.971Z,36.27
2018-07-20T12:43:50.689Z,34.81
2018-07-20T12:44:50.953Z,34.81
2018-07-20T12:45:50.687Z,35.6
2018-07-20T12:46:51.025Z,35.58
2018-07-20T12:47:50.968Z,36.29
2018-07-20T12:48:50.699Z,35.8
2018-07-20T12:49:50.982Z,35.7
2018-07-20T12:50:51.020Z,35.4
2018-07-20T12:51:50.740Z,35.49
2018-07-20T12:52:51.013Z,35.09
2018-07-20T12:53:50.761Z,37.23
2018-07-20T12:54:51.034Z,36.73
2018-07-20T12:55:50.762Z,37.11
2018-07-20T12:56:51.021Z,37.43